sensor_id;sensor_type;location;lat;lon;timestamp;pressure;altitude;pressure_sealevel;temperature;humidity
51123;BME280;37162;41.724;13.346;2023-10-31T16:14:46;96402.91;;;19.97;85.62
51123;BME280;37162;41.724;13.346;2023-10-31T16:17:12;96455.69;;;20.30;86.17
51123;BME280;37162;41.724;13.346;2023-10-31T16:19:37;96458.13;;;20.31;86.26
51123;BME280;37162;41.724;13.346;2023-10-31T16:22:03;96452.47;;;20.33;86.25
51123;BME280;37162;41.724;13.346;2023-10-31T16:24:28;96444.09;;;20.29;86.18
51123;BME280;37162;41.724;13.346;2023-10-31T16:26:54;96453.81;;;20.35;86.21
51123;BME280;37162;41.724;13.346;2023-10-31T16:29:19;96450.06;;;20.36;86.05
51123;BME280;37162;41.724;13.346;2023-10-31T16:31:45;96459.78;;;20.37;86.30
51123;BME280;37162;41.724;13.346;2023-10-31T16:34:11;96449.00;;;20.37;85.96
51123;BME280;37162;41.724;13.346;2023-10-31T16:36:37;96457.13;;;20.42;86.50
51123;BME280;37162;41.724;13.346;2023-10-31T16:39:02;96455.75;;;20.45;86.54
51123;BME280;37162;41.724;13.346;2023-10-31T16:41:28;96456.34;;;20.47;86.86
51123;BME280;37162;41.724;13.346;2023-10-31T16:43:54;96467.41;;;20.51;86.83
51123;BME280;37162;41.724;13.346;2023-10-31T16:46:20;96465.53;;;20.51;86.56
51123;BME280;37162;41.724;13.346;2023-10-31T16:48:45;96469.88;;;20.52;86.61
51123;BME280;37162;41.724;13.346;2023-10-31T16:51:18;96473.13;;;20.54;86.50
51123;BME280;37162;41.724;13.346;2023-10-31T16:53:44;96471.22;;;20.55;86.70
51123;BME280;37162;41.724;13.346;2023-10-31T16:56:09;96476.09;;;20.58;86.63
51123;BME280;37162;41.724;13.346;2023-10-31T16:58:35;96488.50;;;20.59;86.75
51123;BME280;37162;41.724;13.346;2023-10-31T17:01:00;96483.13;;;20.59;86.51
51123;BME280;37162;41.724;13.346;2023-10-31T17:03:26;96494.72;;;20.59;86.61
51123;BME280;37162;41.724;13.346;2023-10-31T17:05:51;96494.47;;;20.61;86.64
51123;BME280;37162;41.724;13.346;2023-10-31T17:08:17;96510.69;;;20.61;86.33
51123;BME280;37162;41.724;13.346;2023-10-31T17:10:42;96508.78;;;20.61;86.43
51123;BME280;37162;41.724;13.346;2023-10-31T17:13:08;96509.59;;;20.62;86.25
51123;BME280;37162;41.724;13.346;2023-10-31T17:15:34;96517.69;;;20.62;86.19
51123;BME280;37162;41.724;13.346;2023-10-31T17:17:59;96517.41;;;20.63;86.05
51123;BME280;37162;41.724;13.346;2023-10-31T17:20:26;96522.00;;;20.63;86.13
51123;BME280;37162;41.724;13.346;2023-10-31T17:22:51;96526.31;;;20.64;85.75
51123;BME280;37162;41.724;13.346;2023-10-31T17:25:17;96533.34;;;20.65;85.87
51123;BME280;37162;41.724;13.346;2023-10-31T17:27:42;96519.84;;;20.65;85.87
51123;BME280;37162;41.724;13.346;2023-10-31T17:30:08;96518.00;;;20.65;85.98
51123;BME280;37162;41.724;13.346;2023-10-31T17:32:34;96520.41;;;20.67;86.03
51123;BME280;37162;41.724;13.346;2023-10-31T17:34:59;96516.34;;;20.64;85.93
51123;BME280;37162;41.724;13.346;2023-10-31T17:37:28;96509.84;;;20.60;86.09
51123;BME280;37162;41.724;13.346;2023-10-31T17:39:53;96516.09;;;20.66;85.78
51123;BME280;37162;41.724;13.346;2023-10-31T17:42:19;96516.09;;;20.66;85.84
51123;BME280;37162;41.724;13.346;2023-10-31T17:44:44;96518.78;;;20.66;85.25
51123;BME280;37162;41.724;13.346;2023-10-31T17:47:10;96523.38;;;20.65;85.23
51123;BME280;37162;41.724;13.346;2023-10-31T17:49:36;96521.50;;;20.66;85.07
51123;BME280;37162;41.724;13.346;2023-10-31T17:52:01;96521.50;;;20.66;85.22
51123;BME280;37162;41.724;13.346;2023-10-31T17:54:29;96516.09;;;20.66;85.15
51123;BME280;37162;41.724;13.346;2023-10-31T17:56:56;96519.84;;;20.65;84.87
51123;BME280;37162;41.724;13.346;2023-10-31T17:59:22;96526.09;;;20.65;85.06
51123;BME280;37162;41.724;13.346;2023-10-31T18:01:49;96527.72;;;20.66;84.89
51123;BME280;37162;41.724;13.346;2023-10-31T18:04:20;96514.69;;;20.58;84.79
51123;BME280;37162;41.724;13.346;2023-10-31T18:06:45;96514.44;;;20.60;85.08
51123;BME280;37162;41.724;13.346;2023-10-31T18:09:11;96540.13;;;20.67;85.34
51123;BME280;37162;41.724;13.346;2023-10-31T18:11:40;96537.44;;;20.67;84.84
51123;BME280;37162;41.724;13.346;2023-10-31T18:14:07;96538.22;;;20.68;84.73
51123;BME280;37162;41.724;13.346;2023-10-31T18:16:33;96540.66;;;20.70;84.85
51123;BME280;37162;41.724;13.346;2023-10-31T18:19:02;96541.75;;;20.68;84.73
51123;BME280;37162;41.724;13.346;2023-10-31T18:21:28;96553.91;;;20.71;84.96
51123;BME280;37162;41.724;13.346;2023-10-31T18:23:55;96548.53;;;20.71;84.87
51123;BME280;37162;41.724;13.346;2023-10-31T18:26:20;96545.53;;;20.73;84.82
51123;BME280;37162;41.724;13.346;2023-10-31T18:28:46;96548.25;;;20.73;84.75
51123;BME280;37162;41.724;13.346;2023-10-31T18:31:12;96554.16;;;20.70;82.98
51123;BME280;37162;41.724;13.346;2023-10-31T18:33:37;96564.72;;;20.71;82.73
51123;BME280;37162;41.724;13.346;2023-10-31T18:36:03;96556.03;;;20.64;81.43
51123;BME280;37162;41.724;13.346;2023-10-31T18:38:28;96562.00;;;20.66;81.06
51123;BME280;37162;41.724;13.346;2023-10-31T18:40:54;96554.69;;;20.66;81.53
51123;BME280;37162;41.724;13.346;2023-10-31T18:43:19;96559.03;;;20.67;81.98
51123;BME280;37162;41.724;13.346;2023-10-31T18:45:45;96561.72;;;20.67;81.97
51123;BME280;37162;41.724;13.346;2023-10-31T18:48:10;96560.09;;;20.66;82.12
51123;BME280;37162;41.724;13.346;2023-10-31T18:50:36;96559.28;;;20.66;82.25
51123;BME280;37162;41.724;13.346;2023-10-31T18:53:02;96562.00;;;20.66;82.12
51123;BME280;37162;41.724;13.346;2023-10-31T18:55:27;96563.59;;;20.62;82.27
51123;BME280;37162;41.724;13.346;2023-10-31T18:57:53;96563.59;;;20.62;82.44
51123;BME280;37162;41.724;13.346;2023-10-31T19:00:18;96573.59;;;20.66;82.52
51123;BME280;37162;41.724;13.346;2023-10-31T19:02:44;96577.09;;;20.67;82.61
51123;BME280;37162;41.724;13.346;2023-10-31T19:05:10;96580.88;;;20.66;83.01
51123;BME280;37162;41.724;13.346;2023-10-31T19:07:36;96581.69;;;20.66;83.02
51123;BME280;37162;41.724;13.346;2023-10-31T19:10:05;96587.91;;;20.67;83.37
51123;BME280;37162;41.724;13.346;2023-10-31T19:12:31;96586.28;;;20.66;83.38
51123;BME280;37162;41.724;13.346;2023-10-31T19:14:56;96587.06;;;20.61;83.67
51123;BME280;37162;41.724;13.346;2023-10-31T19:17:22;96589.78;;;20.66;83.67
51123;BME280;37162;41.724;13.346;2023-10-31T19:19:48;96593.31;;;20.67;83.71
51123;BME280;37162;41.724;13.346;2023-10-31T19:22:13;96588.97;;;20.66;83.83
51123;BME280;37162;41.724;13.346;2023-10-31T19:24:39;96585.72;;;20.64;82.52
51123;BME280;37162;41.724;13.346;2023-10-31T19:27:05;96587.34;;;20.65;83.02
51123;BME280;37162;41.724;13.346;2023-10-31T19:29:30;96590.03;;;20.65;82.99
51123;BME280;37162;41.724;13.346;2023-10-31T19:31:56;96588.41;;;20.64;82.99
51123;BME280;37162;41.724;13.346;2023-10-31T19:34:21;96599.22;;;20.64;82.91
51123;BME280;37162;41.724;13.346;2023-10-31T19:36:46;96601.91;;;20.64;82.99
51123;BME280;37162;41.724;13.346;2023-10-31T19:39:12;96610.00;;;20.64;83.18
51123;BME280;37162;41.724;13.346;2023-10-31T19:41:38;96606.50;;;20.63;83.06
51123;BME280;37162;41.724;13.346;2023-10-31T19:44:04;96612.72;;;20.64;83.54
51123;BME280;37162;41.724;13.346;2023-10-31T19:46:29;96618.91;;;20.64;83.39
51123;BME280;37162;41.724;13.346;2023-10-31T19:48:56;96618.06;;;20.59;83.74
51123;BME280;37162;41.724;13.346;2023-10-31T19:51:22;96633.22;;;20.65;83.52
51123;BME280;37162;41.724;13.346;2023-10-31T19:53:47;96628.91;;;20.64;84.09
51123;BME280;37162;41.724;13.346;2023-10-31T19:56:19;96629.72;;;20.64;83.72
51123;BME280;37162;41.724;13.346;2023-10-31T19:58:45;96627.56;;;20.61;83.79
51123;BME280;37162;41.724;13.346;2023-10-31T20:01:13;96634.00;;;20.60;83.77
51123;BME280;37162;41.724;13.346;2023-10-31T20:03:39;96635.91;;;20.60;83.70
51123;BME280;37162;41.724;13.346;2023-10-31T20:06:05;96643.75;;;20.61;83.82
51123;BME280;37162;41.724;13.346;2023-10-31T20:08:35;96645.63;;;20.61;83.66
51123;BME280;37162;41.724;13.346;2023-10-31T20:11:01;96644.56;;;20.62;83.68
51123;BME280;37162;41.724;13.346;2023-10-31T20:13:28;96646.44;;;20.61;83.85
51123;BME280;37162;41.724;13.346;2023-10-31T20:15:53;96651.84;;;20.61;84.06
51123;BME280;37162;41.724;13.346;2023-10-31T20:18:20;96648.06;;;20.62;84.07
51123;BME280;37162;41.724;13.346;2023-10-31T20:20:47;96648.34;;;20.61;84.22
51123;BME280;37162;41.724;13.346;2023-10-31T20:23:13;96652.41;;;20.63;84.09
51123;BME280;37162;41.724;13.346;2023-10-31T20:25:38;96652.41;;;20.63;84.11
51123;BME280;37162;41.724;13.346;2023-10-31T20:28:04;96657.78;;;20.63;84.38
51123;BME280;37162;41.724;13.346;2023-10-31T20:30:29;96659.69;;;20.63;84.47
51123;BME280;37162;41.724;13.346;2023-10-31T20:32:57;96656.16;;;20.62;84.33
51123;BME280;37162;41.724;13.346;2023-10-31T20:35:22;96662.38;;;20.63;84.20
51123;BME280;37162;41.724;13.346;2023-10-31T20:37:48;96666.16;;;20.62;84.01
51123;BME280;37162;41.724;13.346;2023-10-31T20:40:13;96666.16;;;20.62;84.04
51123;BME280;37162;41.724;13.346;2023-10-31T20:42:39;96668.06;;;20.61;84.17
51123;BME280;37162;41.724;13.346;2023-10-31T20:45:05;96658.06;;;20.62;84.01
51123;BME280;37162;41.724;13.346;2023-10-31T20:47:31;96670.75;;;20.61;83.86
51123;BME280;37162;41.724;13.346;2023-10-31T20:49:57;96665.34;;;20.61;84.12
51123;BME280;37162;41.724;13.346;2023-10-31T20:52:22;96674.25;;;20.62;84.38
51123;BME280;37162;41.724;13.346;2023-10-31T20:54:48;96682.34;;;20.62;84.25
51123;BME280;37162;41.724;13.346;2023-10-31T20:57:13;96673.19;;;20.63;84.26
51123;BME280;37162;41.724;13.346;2023-10-31T20:59:42;96686.13;;;20.61;84.32
51123;BME280;37162;41.724;13.346;2023-10-31T21:02:09;96671.56;;;20.62;84.39
51123;BME280;37162;41.724;13.346;2023-10-31T21:04:34;96681.53;;;20.61;84.48
51123;BME280;37162;41.724;13.346;2023-10-31T21:07:02;96681.50;;;20.56;84.29
51123;BME280;37162;41.724;13.346;2023-10-31T21:09:27;96680.16;;;20.59;84.17
51123;BME280;37162;41.724;13.346;2023-10-31T21:11:53;96681.53;;;20.61;84.01
51123;BME280;37162;41.724;13.346;2023-10-31T21:14:18;96681.53;;;20.61;84.32
51123;BME280;37162;41.724;13.346;2023-10-31T21:16:44;96683.16;;;20.62;84.11
51123;BME280;37162;41.724;13.346;2023-10-31T21:19:10;96673.44;;;20.61;83.92
51123;BME280;37162;41.724;13.346;2023-10-31T21:21:35;96660.16;;;20.55;84.09
51123;BME280;37162;41.724;13.346;2023-10-31T21:24:02;96679.66;;;20.62;84.00
51123;BME280;37162;41.724;13.346;2023-10-31T21:26:27;96685.88;;;20.62;84.34
51123;BME280;37162;41.724;13.346;2023-10-31T21:28:53;96690.44;;;20.62;84.47
51123;BME280;37162;41.724;13.346;2023-10-31T21:31:18;96692.84;;;20.58;84.48
51123;BME280;37162;41.724;13.346;2023-10-31T21:33:44;96685.22;;;20.50;84.52
51123;BME280;37162;41.724;13.346;2023-10-31T21:36:10;96698.78;;;20.60;83.36
51123;BME280;37162;41.724;13.346;2023-10-31T21:38:36;96704.19;;;20.60;83.40
51123;BME280;37162;41.724;13.346;2023-10-31T21:41:04;96713.13;;;20.61;83.75
51123;BME280;37162;41.724;13.346;2023-10-31T21:43:31;96715.25;;;20.59;83.50
51123;BME280;37162;41.724;13.346;2023-10-31T21:45:56;96703.34;;;20.55;83.29
51123;BME280;37162;41.724;13.346;2023-10-31T21:48:22;96714.19;;;20.60;83.36
51123;BME280;37162;41.724;13.346;2023-10-31T21:50:49;96711.44;;;20.55;83.15
51123;BME280;37162;41.724;13.346;2023-10-31T21:53:14;96707.41;;;20.57;83.37
51123;BME280;37162;41.724;13.346;2023-10-31T21:55:40;96711.47;;;20.60;83.36
51123;BME280;37162;41.724;13.346;2023-10-31T21:58:06;96710.66;;;20.59;83.84
51123;BME280;37162;41.724;13.346;2023-10-31T22:00:31;96713.63;;;20.58;83.92
51123;BME280;37162;41.724;13.346;2023-10-31T22:02:57;96716.06;;;20.59;83.90
51123;BME280;37162;41.724;13.346;2023-10-31T22:05:22;96711.47;;;20.60;84.06
51123;BME280;37162;41.724;13.346;2023-10-31T22:07:48;96713.38;;;20.59;83.89
51123;BME280;37162;41.724;13.346;2023-10-31T22:10:13;96702.53;;;20.54;83.96
51123;BME280;37162;41.724;13.346;2023-10-31T22:12:38;96709.59;;;20.60;84.22
51123;BME280;37162;41.724;13.346;2023-10-31T22:15:04;96718.75;;;20.59;84.15
51123;BME280;37162;41.724;13.346;2023-10-31T22:17:30;96712.56;;;20.59;84.15
51123;BME280;37162;41.724;13.346;2023-10-31T22:19:56;96719.56;;;20.60;83.89
51123;BME280;37162;41.724;13.346;2023-10-31T22:22:23;96721.47;;;20.59;84.04
51123;BME280;37162;41.724;13.346;2023-10-31T22:24:49;96722.28;;;20.60;83.94
51123;BME280;37162;41.724;13.346;2023-10-31T22:27:14;96709.28;;;20.52;84.06
51123;BME280;37162;41.724;13.346;2023-10-31T22:29:40;96726.06;;;20.59;83.98
51123;BME280;37162;41.724;13.346;2023-10-31T22:32:06;96722.53;;;20.58;83.78
51123;BME280;37162;41.724;13.346;2023-10-31T22:34:31;96727.13;;;20.58;83.79
51123;BME280;37162;41.724;13.346;2023-10-31T22:36:57;96729.00;;;20.57;83.69
51123;BME280;37162;41.724;13.346;2023-10-31T22:39:22;96725.25;;;20.58;83.86
51123;BME280;37162;41.724;13.346;2023-10-31T22:41:48;96733.34;;;20.58;84.13
51123;BME280;37162;41.724;13.346;2023-10-31T22:44:14;96732.53;;;20.58;84.29
51123;BME280;37162;41.724;13.346;2023-10-31T22:46:45;96737.91;;;20.58;83.94
51123;BME280;37162;41.724;13.346;2023-10-31T22:49:10;96736.03;;;20.58;84.25
51123;BME280;37162;41.724;13.346;2023-10-31T22:51:36;96729.81;;;20.58;84.16
51123;BME280;37162;41.724;13.346;2023-10-31T22:54:02;96729.81;;;20.58;84.36
51123;BME280;37162;41.724;13.346;2023-10-31T22:56:28;96734.16;;;20.59;84.33
51123;BME280;37162;41.724;13.346;2023-10-31T22:58:58;96727.13;;;20.58;84.00
51123;BME280;37162;41.724;13.346;2023-10-31T23:01:24;96733.59;;;20.57;84.15
51123;BME280;37162;41.724;13.346;2023-10-31T23:03:51;96734.41;;;20.57;83.85
51123;BME280;37162;41.724;13.346;2023-10-31T23:06:16;96734.41;;;20.57;83.98
51123;BME280;37162;41.724;13.346;2023-10-31T23:08:42;96737.34;;;20.56;84.07
51123;BME280;37162;41.724;13.346;2023-10-31T23:11:08;96740.88;;;20.56;83.83
51123;BME280;37162;41.724;13.346;2023-10-31T23:13:36;96748.16;;;20.56;83.78
51123;BME280;37162;41.724;13.346;2023-10-31T23:16:02;96742.75;;;20.56;83.71
51123;BME280;37162;41.724;13.346;2023-10-31T23:18:28;96733.03;;;20.55;84.06
51123;BME280;37162;41.724;13.346;2023-10-31T23:20:54;96725.75;;;20.55;84.20
51123;BME280;37162;41.724;13.346;2023-10-31T23:23:19;96728.22;;;20.57;84.45
51123;BME280;37162;41.724;13.346;2023-10-31T23:25:48;96720.34;;;20.55;84.19
51123;BME280;37162;41.724;13.346;2023-10-31T23:28:13;96724.13;;;20.54;84.43
51123;BME280;37162;41.724;13.346;2023-10-31T23:30:40;96722.22;;;20.55;84.48
51123;BME280;37162;41.724;13.346;2023-10-31T23:33:06;96717.88;;;20.49;84.31
51123;BME280;37162;41.724;13.346;2023-10-31T23:35:32;96711.13;;;20.51;84.00
51123;BME280;37162;41.724;13.346;2023-10-31T23:37:57;96701.94;;;20.47;84.16
51123;BME280;37162;41.724;13.346;2023-10-31T23:40:23;96705.72;;;20.51;83.93
51123;BME280;37162;41.724;13.346;2023-10-31T23:42:48;96712.78;;;20.52;84.01
51123;BME280;37162;41.724;13.346;2023-10-31T23:45:14;96703.59;;;20.53;83.79
51123;BME280;37162;41.724;13.346;2023-10-31T23:47:39;96706.56;;;20.52;83.75
51123;BME280;37162;41.724;13.346;2023-10-31T23:50:05;96708.19;;;20.53;84.00
51123;BME280;37162;41.724;13.346;2023-10-31T23:52:30;96707.63;;;20.51;83.85
51123;BME280;37162;41.724;13.346;2023-10-31T23:54:56;96705.44;;;20.48;84.15
51123;BME280;37162;41.724;13.346;2023-10-31T23:57:21;96717.09;;;20.53;84.13
51123;BME280;37162;41.724;13.346;2023-10-31T23:59:47;96712.50;;;20.54;84.36
